createdAt,value
2017-12-27T00:02:23.287Z,80.90
2017-12-27T00:07:38.172Z,80.75
2017-12-27T00:10:14.337Z,80.54
2017-12-27T00:12:49.071Z,80.21
2017-12-27T00:15:37.720Z,80.41
2017-12-27T00:18:12.956Z,80.30
2017-12-27T00:21:00.384Z,80.21
2017-12-27T00:23:35.012Z,80.38
2017-12-27T00:26:11.486Z,80.55
2017-12-27T00:28:46.105Z,80.23
2017-12-27T00:31:18.686Z,80.37
2017-12-27T00:33:47.781Z,80.04
2017-12-27T00:36:16.878Z,80.07
2017-12-27T00:38:52.839Z,80.03
2017-12-27T00:41:23.566Z,79.78
2017-12-27T00:43:54.304Z,79.84
2017-12-27T00:46:24.609Z,79.64
2017-12-27T00:48:53.568Z,79.61
2017-12-27T00:51:25.276Z,79.70
2017-12-27T00:53:55.422Z,79.54
2017-12-27T00:56:24.507Z,79.80
2017-12-27T00:58:53.728Z,79.67
2017-12-27T01:01:23.076Z,79.51
2017-12-27T01:03:52.029Z,79.66
2017-12-27T01:06:23.730Z,79.47
2017-12-27T01:08:52.745Z,79.51
2017-12-27T01:11:23.471Z,79.59
2017-12-27T01:13:56.771Z,79.27
2017-12-27T01:16:25.656Z,79.33
2017-12-27T01:18:55.657Z,79.50
2017-12-27T01:21:26.506Z,79.19
2017-12-27T01:23:56.645Z,79.25
2017-12-27T01:26:26.354Z,79.30
2017-12-27T01:28:57.922Z,79.50
2017-12-27T01:31:26.945Z,79.68
2017-12-27T01:33:55.824Z,79.39
2017-12-27T01:36:26.632Z,79.11
2017-12-27T01:38:58.395Z,79.00
2017-12-27T01:41:30.264Z,78.90
2017-12-27T01:44:01.196Z,78.47
2017-12-27T01:46:30.420Z,78.08
2017-12-27T01:49:05.420Z,77.65
2017-12-27T01:51:34.760Z,77.48
2017-12-27T01:54:04.882Z,77.28
2017-12-27T01:59:08.183Z,77.05
2017-12-27T02:01:37.129Z,76.80
2017-12-27T02:04:06.786Z,76.42
2017-12-27T02:06:35.702Z,76.32
2017-12-27T02:09:04.978Z,75.94
2017-12-27T02:11:34.451Z,75.90
2017-12-27T02:14:03.601Z,75.79
2017-12-27T02:16:32.718Z,76.21
2017-12-27T02:19:01.682Z,76.50
2017-12-27T02:21:31.651Z,76.45
2017-12-27T02:24:00.893Z,76.20
2017-12-27T02:26:29.946Z,76.22
2017-12-27T02:28:58.951Z,76.20
2017-12-27T02:31:29.580Z,75.94
2017-12-27T02:33:59.494Z,75.89
2017-12-27T02:36:28.586Z,75.63
2017-12-27T02:38:57.994Z,74.98
2017-12-27T02:41:26.984Z,74.63
2017-12-27T02:43:56.451Z,74.17
2017-12-27T02:46:25.381Z,73.85
2017-12-27T02:48:57.961Z,73.61
2017-12-27T02:51:27.089Z,73.33
2017-12-27T02:53:57.927Z,72.71
2017-12-27T02:56:26.798Z,72.27
2017-12-27T02:58:55.687Z,72.13
2017-12-27T03:01:25.493Z,71.75
2017-12-27T03:03:55.413Z,71.62
2017-12-27T03:06:24.392Z,71.63
2017-12-27T03:08:53.549Z,71.76
2017-12-27T03:11:23.477Z,71.60
2017-12-27T03:13:52.399Z,71.35
2017-12-27T03:16:21.502Z,71.09
2017-12-27T03:18:50.627Z,70.86
2017-12-27T03:21:19.592Z,70.77
2017-12-27T03:23:48.447Z,70.36
2017-12-27T03:26:20.842Z,70.02
2017-12-27T03:28:49.747Z,69.84
2017-12-27T03:31:19.445Z,69.82
2017-12-27T03:33:48.444Z,69.71
2017-12-27T03:36:17.575Z,69.79
2017-12-27T03:38:47.460Z,69.67
2017-12-27T03:41:17.304Z,69.49
2017-12-27T03:43:47.174Z,69.67
2017-12-27T03:46:16.803Z,69.64
2017-12-27T03:51:21.323Z,69.78
2017-12-27T03:53:50.330Z,69.98
2017-12-27T03:56:19.364Z,70.38
2017-12-27T03:58:48.472Z,70.12
2017-12-27T04:01:18.133Z,70.08
2017-12-27T04:03:47.330Z,70.01
2017-12-27T04:06:16.222Z,70.18
2017-12-27T04:08:46.241Z,70.36
2017-12-27T04:11:16.203Z,70.41
2017-12-27T04:13:45.477Z,70.55
2017-12-27T04:16:14.497Z,70.21
2017-12-27T04:18:43.486Z,69.99
2017-12-27T04:21:12.585Z,69.80
2017-12-27T04:23:41.586Z,69.76
2017-12-27T04:26:10.666Z,69.22
2017-12-27T04:28:40.406Z,68.89
2017-12-27T04:31:09.412Z,68.70
2017-12-27T04:33:41.400Z,68.56
2017-12-27T04:36:10.537Z,68.54
2017-12-27T04:38:39.633Z,68.48
2017-12-27T04:41:08.696Z,68.52
2017-12-27T04:43:41.381Z,68.23
2017-12-27T04:46:11.400Z,68.10
2017-12-27T04:48:41.136Z,68.01
2017-12-27T04:51:10.342Z,67.84
2017-12-27T04:53:39.431Z,67.76
2017-12-27T04:56:08.424Z,67.77
2017-12-27T04:58:37.341Z,67.77
2017-12-27T05:01:06.380Z,67.37
2017-12-27T05:03:35.575Z,67.23
2017-12-27T05:06:04.573Z,67.24
2017-12-27T05:08:33.668Z,67.55
2017-12-27T05:11:03.512Z,67.20
2017-12-27T05:13:32.628Z,67.30
2017-12-27T05:16:03.373Z,67.20
2017-12-27T05:18:32.352Z,67.09
2017-12-27T05:21:01.651Z,67.21
2017-12-27T05:23:31.467Z,67.28
2017-12-27T05:26:00.412Z,67.14
2017-12-27T05:28:30.250Z,67.11
2017-12-27T05:31:01.165Z,66.78
2017-12-27T05:33:30.164Z,66.56
2017-12-27T05:35:59.150Z,66.06
2017-12-27T05:38:28.145Z,66.02
2017-12-27T05:40:57.045Z,65.70
2017-12-27T05:43:25.977Z,65.83
2017-12-27T05:45:57.686Z,65.83
2017-12-27T05:48:26.693Z,66.12
2017-12-27T05:50:55.775Z,66.03
2017-12-27T05:53:27.204Z,66.13
2017-12-27T05:55:56.225Z,66.04
2017-12-27T05:58:25.214Z,66.13
2017-12-27T06:00:59.249Z,66.18
2017-12-27T06:03:29.090Z,66.51
2017-12-27T06:05:58.070Z,66.15
2017-12-27T06:08:26.963Z,66.51
2017-12-27T06:10:55.929Z,66.08
2017-12-27T06:13:25.017Z,65.94
2017-12-27T06:15:54.769Z,65.73
2017-12-27T06:18:26.487Z,65.33
2017-12-27T06:20:55.581Z,65.49
2017-12-27T06:23:25.369Z,65.26
2017-12-27T06:25:55.409Z,65.12
2017-12-27T06:28:25.271Z,64.78
2017-12-27T06:30:54.361Z,64.75
2017-12-27T06:33:24.592Z,66.91
2017-12-27T06:35:53.632Z,71.93
2017-12-27T06:38:22.527Z,73.60
2017-12-27T06:40:52.246Z,74.19
2017-12-27T06:43:21.335Z,74.93
2017-12-27T06:45:51.151Z,74.96
2017-12-27T06:48:20.236Z,75.36
2017-12-27T06:50:50.080Z,74.14
2017-12-27T06:53:19.980Z,72.54
2017-12-27T06:55:50.016Z,70.54
2017-12-27T06:58:18.895Z,68.83
2017-12-27T07:00:48.773Z,67.53
2017-12-27T07:03:17.924Z,66.58
2017-12-27T07:05:48.761Z,66.35
2017-12-27T07:08:20.613Z,66.05
2017-12-27T07:10:49.640Z,65.76
2017-12-27T07:13:18.713Z,65.12
2017-12-27T07:15:47.642Z,64.85
2017-12-27T07:20:52.837Z,64.44
2017-12-27T07:23:21.840Z,64.01
2017-12-27T07:25:51.663Z,64.02
2017-12-27T07:28:20.663Z,63.61
2017-12-27T07:30:51.495Z,63.75
2017-12-27T07:33:20.956Z,63.75
2017-12-27T07:35:50.093Z,63.68
2017-12-27T07:38:19.912Z,63.67
2017-12-27T07:40:48.960Z,63.41
2017-12-27T07:43:17.895Z,63.23
2017-12-27T07:45:47.743Z,63.75
2017-12-27T07:48:19.667Z,63.63
2017-12-27T07:50:48.665Z,63.50
2017-12-27T07:53:17.560Z,63.63
2017-12-27T07:55:48.781Z,63.42
2017-12-27T07:58:18.521Z,63.53
2017-12-27T08:00:47.619Z,63.59
2017-12-27T08:05:50.997Z,63.31
2017-12-27T08:08:20.753Z,63.16
2017-12-27T08:10:50.740Z,62.97
2017-12-27T08:13:19.880Z,63.20
2017-12-27T08:15:48.924Z,63.13
2017-12-27T08:18:18.637Z,63.01
2017-12-27T08:20:47.876Z,64.78
2017-12-27T08:23:17.687Z,67.31
2017-12-27T08:25:49.303Z,68.46
2017-12-27T08:28:19.108Z,68.67
2017-12-27T08:30:49.753Z,69.24
2017-12-27T08:33:18.679Z,69.34
2017-12-27T08:35:47.603Z,68.87
2017-12-27T08:38:16.666Z,69.07
2017-12-27T08:40:46.504Z,69.21
2017-12-27T08:43:15.438Z,68.79
2017-12-27T08:45:44.841Z,67.11
2017-12-27T08:48:14.439Z,66.88
2017-12-27T08:50:43.540Z,66.09
2017-12-27T08:53:12.724Z,65.55
2017-12-27T08:55:44.910Z,64.95
2017-12-27T08:58:13.918Z,64.49
2017-12-27T09:00:42.925Z,64.52
2017-12-27T09:03:12.730Z,64.56
2017-12-27T09:05:41.903Z,63.89
2017-12-27T09:08:11.072Z,64.27
2017-12-27T09:10:40.222Z,64.20
2017-12-27T09:13:10.177Z,63.44
2017-12-27T09:15:39.793Z,63.22
2017-12-27T09:18:12.953Z,63.12
2017-12-27T09:20:42.054Z,62.64
2017-12-27T09:23:11.102Z,62.81
2017-12-27T09:25:40.193Z,62.52
2017-12-27T09:28:09.098Z,62.10
2017-12-27T09:30:39.018Z,63.23
2017-12-27T09:33:08.079Z,64.24
2017-12-27T09:35:37.780Z,64.14
2017-12-27T09:38:06.672Z,64.23
2017-12-27T09:40:35.799Z,64.09
2017-12-27T09:43:07.320Z,63.51
2017-12-27T09:45:40.104Z,64.01
2017-12-27T09:48:09.099Z,63.63
2017-12-27T09:50:38.601Z,63.53
2017-12-27T09:53:07.804Z,63.46
2017-12-27T09:55:36.900Z,62.94
2017-12-27T09:58:05.766Z,63.11
2017-12-27T10:00:39.548Z,62.93
2017-12-27T10:03:08.624Z,63.14
2017-12-27T10:05:37.580Z,62.78
2017-12-27T10:08:07.373Z,62.90
2017-12-27T10:10:36.230Z,62.04
2017-12-27T10:13:05.258Z,62.69
2017-12-27T10:15:39.807Z,60.84
2017-12-27T10:18:09.002Z,60.20
2017-12-27T10:20:37.889Z,60.84
2017-12-27T10:23:09.613Z,60.37
2017-12-27T10:25:39.560Z,60.82
2017-12-27T10:28:09.936Z,60.10
2017-12-27T10:30:39.042Z,59.66
2017-12-27T10:33:07.921Z,59.44
2017-12-27T10:35:37.012Z,59.06
2017-12-27T10:38:06.070Z,59.20
2017-12-27T10:40:38.515Z,59.04
2017-12-27T10:43:15.312Z,59.20
2017-12-27T10:45:45.117Z,59.22
2017-12-27T10:48:14.109Z,58.84
2017-12-27T10:50:44.130Z,58.69
2017-12-27T10:53:14.147Z,58.97
2017-12-27T10:55:43.241Z,59.08
2017-12-27T10:58:14.144Z,59.39
2017-12-27T11:00:43.891Z,58.85
2017-12-27T11:03:15.583Z,58.37
2017-12-27T11:05:44.573Z,58.32
2017-12-27T11:08:14.554Z,58.66
2017-12-27T11:10:43.764Z,58.76
2017-12-27T11:13:14.082Z,59.23
2017-12-27T11:15:43.075Z,60.89
2017-12-27T11:18:13.952Z,59.18
2017-12-27T11:20:42.942Z,58.86
2017-12-27T11:23:12.011Z,58.70
2017-12-27T11:25:41.442Z,58.21
2017-12-27T11:28:10.603Z,58.10
2017-12-27T11:30:40.047Z,58.04
2017-12-27T11:33:10.947Z,57.98
2017-12-27T11:35:41.766Z,58.08
2017-12-27T11:38:14.342Z,57.56
2017-12-27T11:40:43.337Z,57.21
2017-12-27T11:43:13.202Z,58.01
2017-12-27T11:48:17.131Z,56.40
2017-12-27T11:50:47.262Z,56.41
2017-12-27T11:53:17.369Z,56.21
2017-12-27T11:55:47.330Z,55.86
2017-12-27T11:58:17.960Z,56.27
2017-12-27T12:00:51.703Z,56.36
2017-12-27T12:03:20.725Z,56.91
2017-12-27T12:08:28.632Z,57.21
2017-12-27T12:10:58.320Z,57.16
2017-12-27T12:13:28.293Z,57.95
2017-12-27T12:15:59.068Z,58.82
2017-12-27T12:18:31.132Z,59.05
2017-12-27T12:21:00.172Z,59.79
2017-12-27T12:23:30.153Z,60.08
2017-12-27T12:26:02.789Z,60.30
2017-12-27T12:28:33.354Z,60.07
2017-12-27T12:31:03.372Z,60.27
2017-12-27T12:33:34.182Z,60.66
2017-12-27T12:36:03.646Z,60.82
2017-12-27T12:38:32.702Z,61.73
2017-12-27T12:41:01.741Z,62.27
2017-12-27T12:43:32.926Z,62.12
2017-12-27T12:46:01.944Z,62.24
2017-12-27T12:48:31.961Z,62.37
2017-12-27T12:51:01.874Z,62.66
2017-12-27T12:53:31.644Z,62.91
2017-12-27T12:56:01.091Z,62.96
2017-12-27T12:58:29.989Z,62.69
2017-12-27T13:00:59.955Z,61.88
2017-12-27T13:03:28.963Z,61.38
2017-12-27T13:05:58.025Z,60.85
2017-12-27T13:08:26.953Z,61.30
2017-12-27T13:10:56.049Z,61.59
2017-12-27T13:13:25.344Z,61.49
2017-12-27T13:15:55.393Z,61.78
2017-12-27T13:18:24.391Z,61.45
2017-12-27T13:20:53.366Z,61.60
2017-12-27T13:23:23.942Z,61.20
2017-12-27T13:25:52.982Z,61.36
2017-12-27T13:28:22.172Z,61.42
2017-12-27T13:30:52.907Z,61.83
2017-12-27T13:33:22.738Z,62.72
2017-12-27T13:35:52.329Z,63.61
2017-12-27T13:40:55.543Z,64.95
2017-12-27T13:43:24.852Z,64.38
2017-12-27T13:45:54.376Z,64.16
2017-12-27T13:48:27.581Z,63.48
2017-12-27T13:50:57.896Z,63.56
2017-12-27T13:53:27.033Z,63.87
2017-12-27T13:55:56.900Z,64.17
2017-12-27T13:58:26.890Z,64.44
2017-12-27T14:00:56.781Z,64.37
2017-12-27T14:03:30.091Z,64.64
2017-12-27T14:05:59.179Z,64.97
2017-12-27T14:08:29.866Z,64.71
2017-12-27T14:11:01.988Z,64.33
2017-12-27T14:13:31.194Z,64.01
2017-12-27T14:16:00.155Z,64.07
2017-12-27T14:18:33.067Z,64.36
2017-12-27T14:21:02.064Z,64.55
2017-12-27T14:23:32.080Z,65.59
2017-12-27T14:26:02.190Z,65.83
2017-12-27T14:28:32.108Z,65.88
2017-12-27T14:31:01.108Z,66.33
2017-12-27T14:33:30.307Z,66.67
2017-12-27T14:35:59.448Z,68.32
2017-12-27T14:38:28.393Z,68.73
2017-12-27T14:40:58.618Z,69.46
2017-12-27T14:43:27.652Z,69.58
2017-12-27T14:45:58.447Z,70.21
2017-12-27T14:48:27.967Z,70.33
2017-12-27T14:50:57.152Z,70.15
2017-12-27T14:53:26.147Z,70.11
2017-12-27T14:55:56.115Z,69.43
2017-12-27T14:58:25.171Z,69.24
2017-12-27T15:00:57.053Z,70.48
2017-12-27T15:03:26.009Z,71.82
2017-12-27T15:05:54.946Z,71.67
2017-12-27T15:10:59.665Z,73.98
2017-12-27T15:13:29.565Z,75.13
2017-12-27T15:16:00.377Z,75.90
2017-12-27T15:18:29.356Z,76.23
2017-12-27T15:20:58.304Z,77.43
2017-12-27T15:23:28.258Z,77.74
2017-12-27T15:25:57.179Z,78.57
2017-12-27T15:28:27.283Z,79.64
2017-12-27T15:30:56.349Z,80.04
2017-12-27T15:33:25.499Z,80.42
2017-12-27T15:35:54.470Z,80.61
2017-12-27T15:38:24.445Z,80.55
2017-12-27T15:40:54.462Z,80.61
2017-12-27T15:43:23.344Z,80.93
2017-12-27T15:45:57.160Z,81.13
2017-12-27T15:48:27.383Z,82.66
2017-12-27T15:51:03.028Z,84.40
2017-12-27T15:53:32.023Z,84.72
2017-12-27T15:56:01.189Z,85.73
2017-12-27T15:58:34.008Z,86.18
2017-12-27T16:01:03.954Z,86.36
2017-12-27T16:03:32.915Z,86.98
2017-12-27T16:06:02.518Z,86.85
2017-12-27T16:08:32.642Z,87.20
2017-12-27T16:11:05.322Z,87.40
2017-12-27T16:13:34.320Z,87.21
2017-12-27T16:16:03.262Z,87.69
2017-12-27T16:18:33.325Z,88.21
2017-12-27T16:21:03.282Z,87.84
2017-12-27T16:23:34.109Z,87.48
2017-12-27T16:26:04.057Z,87.25
2017-12-27T16:28:36.266Z,87.04
2017-12-27T16:31:05.500Z,87.11
2017-12-27T16:33:35.379Z,87.66
2017-12-27T16:36:05.164Z,87.68
2017-12-27T16:38:34.294Z,87.48
2017-12-27T16:41:03.295Z,87.84
2017-12-27T16:43:33.090Z,88.29
2017-12-27T16:46:10.360Z,88.90
2017-12-27T16:48:39.525Z,89.10
2017-12-27T16:51:08.575Z,89.43
2017-12-27T16:53:38.588Z,89.60
2017-12-27T16:56:08.783Z,89.41
2017-12-27T16:58:37.921Z,89.05
2017-12-27T17:01:07.987Z,88.68
2017-12-27T17:03:37.073Z,88.50
2017-12-27T17:06:07.022Z,88.38
2017-12-27T17:08:36.077Z,88.78
2017-12-27T17:11:05.052Z,89.18
2017-12-27T17:13:34.072Z,89.30
2017-12-27T17:16:03.128Z,89.33
2017-12-27T17:21:07.183Z,89.33
2017-12-27T17:23:37.266Z,89.29
2017-12-27T17:28:42.736Z,89.48
2017-12-27T17:31:12.901Z,89.57
2017-12-27T17:33:41.886Z,89.18
2017-12-27T17:36:10.770Z,89.18
2017-12-27T17:38:39.730Z,89.94
2017-12-27T17:41:11.379Z,90.61
2017-12-27T17:43:40.560Z,90.38
2017-12-27T17:46:09.478Z,90.24
2017-12-27T17:48:38.474Z,89.77
2017-12-27T17:51:07.570Z,89.33
2017-12-27T17:53:37.208Z,89.26
2017-12-27T17:56:11.662Z,88.84
2017-12-27T17:58:40.723Z,88.95
2017-12-27T18:01:09.788Z,89.04
2017-12-27T18:03:39.635Z,89.46
2017-12-27T18:06:08.697Z,89.56
2017-12-27T18:08:37.692Z,89.31
2017-12-27T18:11:06.697Z,88.76
2017-12-27T18:13:35.861Z,87.68
2017-12-27T18:16:04.981Z,87.09
2017-12-27T18:18:34.066Z,86.91
2017-12-27T18:21:03.246Z,87.29
2017-12-27T18:23:32.332Z,87.30
2017-12-27T18:26:01.361Z,87.18
2017-12-27T18:28:30.285Z,87.24
2017-12-27T18:30:59.279Z,87.27
2017-12-27T18:33:29.143Z,87.63
2017-12-27T18:35:59.696Z,87.44
2017-12-27T18:38:28.619Z,87.73
2017-12-27T18:43:32.203Z,87.92
2017-12-27T18:46:01.010Z,87.89
2017-12-27T18:48:30.909Z,88.12
2017-12-27T18:51:00.041Z,87.90
2017-12-27T18:53:29.033Z,87.62
2017-12-27T18:56:03.729Z,87.93
2017-12-27T18:58:32.869Z,87.28
2017-12-27T19:01:01.963Z,87.10
2017-12-27T19:03:31.042Z,86.96
2017-12-27T19:06:01.668Z,87.16
2017-12-27T19:08:30.736Z,87.32
2017-12-27T19:10:59.869Z,88.34
2017-12-27T19:13:28.935Z,87.73
2017-12-27T19:15:58.027Z,87.20
2017-12-27T19:18:27.127Z,87.05
2017-12-27T19:20:56.064Z,87.16
2017-12-27T19:23:25.121Z,87.37
2017-12-27T19:25:58.510Z,87.49
2017-12-27T19:28:28.321Z,87.02
2017-12-27T19:30:57.464Z,87.24
2017-12-27T19:33:26.624Z,86.49
2017-12-27T19:35:55.698Z,86.22
2017-12-27T19:38:24.843Z,86.28
2017-12-27T19:40:54.005Z,86.31
2017-12-27T19:43:22.933Z,86.37
2017-12-27T19:45:52.006Z,88.07
2017-12-27T19:48:25.642Z,87.87
2017-12-27T19:50:54.624Z,88.26
2017-12-27T19:53:23.686Z,88.36
2017-12-27T19:55:53.769Z,88.22
2017-12-27T19:58:22.736Z,88.00
2017-12-27T20:00:51.691Z,88.11
2017-12-27T20:05:57.417Z,88.90
2017-12-27T20:08:26.456Z,87.77
2017-12-27T20:10:55.441Z,87.21
2017-12-27T20:13:24.440Z,86.01
2017-12-27T20:15:53.382Z,85.30
2017-12-27T20:18:24.168Z,84.69
2017-12-27T20:20:53.275Z,84.43
2017-12-27T20:23:22.981Z,83.53
2017-12-27T20:25:52.993Z,83.54
2017-12-27T20:28:22.021Z,83.56
2017-12-27T20:30:50.985Z,82.98
2017-12-27T20:33:23.339Z,82.84
2017-12-27T20:35:54.364Z,83.18
2017-12-27T20:38:23.395Z,82.81
2017-12-27T20:40:52.586Z,83.07
2017-12-27T20:43:21.516Z,82.57
2017-12-27T20:45:52.348Z,82.70
2017-12-27T20:48:21.460Z,82.88
2017-12-27T20:50:51.394Z,82.51
2017-12-27T20:53:21.521Z,82.51
2017-12-27T20:55:50.485Z,82.41
2017-12-27T20:58:19.679Z,82.44
2017-12-27T21:00:49.454Z,82.20
2017-12-27T21:03:18.429Z,82.38
2017-12-27T21:05:48.279Z,82.03
2017-12-27T21:08:18.109Z,81.58
2017-12-27T21:10:47.019Z,81.64
2017-12-27T21:13:16.000Z,81.40
2017-12-27T21:15:47.056Z,81.42
2017-12-27T21:18:15.967Z,81.55
2017-12-27T21:20:44.926Z,81.48
2017-12-27T21:23:13.887Z,81.37
2017-12-27T21:25:42.818Z,81.53
2017-12-27T21:28:13.507Z,81.37
2017-12-27T21:30:49.505Z,81.68
2017-12-27T21:33:20.400Z,81.80
2017-12-27T21:35:49.598Z,81.90
2017-12-27T21:38:19.615Z,82.23
2017-12-27T21:40:48.714Z,81.79
2017-12-27T21:43:18.545Z,81.60
2017-12-27T21:45:48.357Z,81.42
2017-12-27T21:48:23.635Z,81.49
2017-12-27T21:50:52.655Z,81.86
2017-12-27T21:53:21.747Z,81.88
2017-12-27T21:55:50.798Z,81.41
2017-12-27T21:58:25.639Z,81.71
2017-12-27T22:01:00.463Z,81.47
2017-12-27T22:06:06.232Z,81.30
2017-12-27T22:08:35.272Z,81.25
2017-12-27T22:11:04.217Z,81.22
2017-12-27T22:13:33.318Z,81.51
2017-12-27T22:16:02.856Z,81.90
2017-12-27T22:18:37.957Z,81.80
2017-12-27T22:21:09.714Z,81.76
2017-12-27T22:23:39.532Z,82.10
2017-12-27T22:26:08.567Z,82.10
2017-12-27T22:28:38.309Z,82.28
2017-12-27T22:31:08.222Z,82.50
2017-12-27T22:33:38.141Z,82.69
2017-12-27T22:36:09.120Z,82.24
2017-12-27T22:38:38.816Z,82.55
2017-12-27T22:41:09.557Z,82.81
2017-12-27T22:43:38.680Z,83.05
2017-12-27T22:48:44.386Z,84.03
2017-12-27T22:51:14.371Z,84.69
2017-12-27T22:53:44.302Z,85.39
2017-12-27T22:56:13.483Z,85.58
2017-12-27T22:58:42.439Z,86.00
2017-12-27T23:01:14.822Z,86.05
2017-12-27T23:03:44.835Z,86.38
2017-12-27T23:06:13.782Z,86.48
2017-12-27T23:08:44.145Z,87.12
2017-12-27T23:11:13.179Z,86.72
2017-12-27T23:16:16.707Z,85.80
2017-12-27T23:18:45.755Z,85.67
2017-12-27T23:21:14.765Z,85.32
2017-12-27T23:23:43.839Z,84.85
2017-12-27T23:26:12.821Z,85.23
2017-12-27T23:28:43.093Z,84.55
2017-12-27T23:31:12.283Z,84.36
2017-12-27T23:33:41.235Z,84.71
2017-12-27T23:38:44.648Z,84.08
2017-12-27T23:41:13.852Z,83.85
2017-12-27T23:43:47.483Z,83.70
2017-12-27T23:46:16.650Z,83.92
2017-12-27T23:48:49.031Z,83.57
2017-12-27T23:51:18.066Z,83.73
2017-12-27T23:53:47.011Z,83.74
2017-12-27T23:56:18.875Z,83.84
2017-12-27T23:58:47.866Z,84.33
